Time;durP1;ratioP1;P1;durP2;ratioP2;P2;SDS_P1;SDS_P2;PMS_P1;PMS_P2;Temp;Humidity;BMP_temperature;BMP_pressure;BME280_temperature;BME280_humidity;BME280_pressure;Samples;Min_cycle;Max_cycle;Signal;HPM_P1;HPM_P2
2022/03/23 00:00:26;;;;;;;;;60.50;46.50;;;;;11.08;32.55;100488.53;6313028;27;96767;-68
2022/03/23 00:03:31;;;;;;;;;59.20;44.00;;;;;11.18;32.67;100486.41;6310939;27;97050;-68
2022/03/23 00:06:34;;;;;;;;;60.00;46.00;;;;;11.22;32.49;100484.16;6311970;27;97694;-68
2022/03/23 00:09:37;;;;;;;;;58.40;46.00;;;;;11.20;32.42;100481.63;6276936;27;98694;-68
2022/03/23 00:12:59;;;;;;;;;62.00;48.00;;;;;11.25;32.96;100487.31;6312589;27;96906;-67
2022/03/23 00:16:02;;;;;;;;;65.00;48.67;;;;;11.36;32.46;100483.31;6313742;27;97186;-68
2022/03/23 00:19:08;;;;;;;;;62.00;48.25;;;;;11.47;32.39;100484.69;6295442;27;97502;-69
2022/03/23 00:22:11;;;;;;;;;62.00;48.00;;;;;11.51;32.36;100481.44;6315310;27;96704;-68
2022/03/23 00:25:14;;;;;;;;;63.40;48.00;;;;;11.59;32.24;100481.31;6294569;27;97232;-68
2022/03/23 00:28:18;;;;;;;;;57.80;46.80;;;;;11.59;32.48;100481.31;6312874;27;97056;-68
2022/03/23 00:31:22;;;;;;;;;60.00;46.40;;;;;11.50;32.44;100477.03;6293326;27;97828;-68
2022/03/23 00:34:26;;;;;;;;;60.25;46.00;;;;;11.34;32.59;100473.72;6313125;27;97375;-68
2022/03/23 00:37:30;;;;;;;;;62.80;46.40;;;;;11.05;32.82;100455.66;6312371;27;97483;-68
2022/03/23 00:40:33;;;;;;;;;62.00;47.00;;;;;11.04;32.91;100464.81;6266600;27;97123;-68
2022/03/23 00:43:36;;;;;;;;;61.00;46.40;;;;;10.96;33.10;100467.59;6286230;27;98475;-68
2022/03/23 00:46:39;;;;;;;;;58.60;46.00;;;;;10.86;33.34;100459.75;6293180;27;97566;-68
2022/03/23 00:49:44;;;;;;;;;65.60;50.00;;;;;10.81;33.22;100460.31;6312320;27;97004;-68
2022/03/23 00:52:48;;;;;;;;;64.00;47.60;;;;;10.77;33.53;100459.03;6294086;27;97201;-68
2022/03/23 00:55:53;;;;;;;;;61.25;47.75;;;;;10.64;33.81;100458.81;6275486;27;98474;-67
2022/03/23 00:58:58;;;;;;;;;62.50;47.00;;;;;10.48;34.33;100452.75;6294971;27;98404;-67
2022/03/23 01:02:02;;;;;;;;;62.00;47.00;;;;;10.26;34.54;100452.59;6275574;27;97816;-67
2022/03/23 01:05:09;;;;;;;;;60.80;46.00;;;;;10.04;35.02;100437.25;6292172;27;97488;-68
2022/03/23 01:08:12;;;;;;;;;58.20;45.60;;;;;9.86;34.98;100442.94;6279094;27;98470;-67
2022/03/23 01:11:15;;;;;;;;;58.60;45.60;;;;;9.72;35.42;100445.59;6286576;27;97306;-68
2022/03/23 01:14:20;;;;;;;;;62.00;45.75;;;;;9.57;35.75;100448.19;6253273;27;99378;-68
2022/03/23 01:17:24;;;;;;;;;62.00;47.00;;;;;9.40;35.65;100425.06;6299115;27;96401;-68
2022/03/23 01:20:30;;;;;;;;;60.60;45.80;;;;;9.45;35.81;100445.06;6318039;27;97430;-67
2022/03/23 01:23:34;;;;;;;;;59.60;45.00;;;;;9.44;35.90;100440.69;6297867;27;97860;-67
2022/03/23 01:26:37;;;;;;;;;61.60;47.00;;;;;9.38;36.19;100443.25;6293333;27;99261;-67
2022/03/23 01:29:41;;;;;;;;;60.00;46.00;;;;;9.32;36.08;100439.41;6296854;27;97492;-68
2022/03/23 01:32:45;;;;;;;;;61.00;44.75;;;;;9.25;36.31;100438.41;6279186;27;97915;-68
2022/03/23 01:35:50;;;;;;;;;56.60;44.60;;;;;9.21;36.43;100445.16;6315900;27;96680;-67
2022/03/23 01:38:54;;;;;;;;;61.40;47.00;;;;;9.08;36.65;100439.53;6295379;27;96799;-67
2022/03/23 01:41:57;;;;;;;;;57.00;45.80;;;;;8.94;36.40;100432.19;6275362;27;97294;-67
2022/03/23 01:45:03;;;;;;;;;56.00;44.20;;;;;8.83;36.46;100443.31;6299056;27;97993;-67
2022/03/23 01:48:06;;;;;;;;;60.40;46.40;;;;;8.66;37.08;100439.81;6296411;27;98201;-67
2022/03/23 01:51:15;;;;;;;;;60.00;46.20;;;;;8.48;37.37;100428.41;6297835;27;98373;-68
2022/03/23 01:54:18;;;;;;;;;61.00;46.00;;;;;8.55;37.01;100438.31;6296736;27;98013;-68
2022/03/23 01:57:23;;;;;;;;;62.00;46.40;;;;;8.59;37.01;100425.38;6296894;27;97164;-68
2022/03/23 02:00:28;;;;;;;;;58.75;46.00;;;;;8.50;37.45;100411.09;6312223;27;98118;-67
2022/03/23 02:03:31;;;;;;;;;58.00;46.00;;;;;8.68;37.28;100425.19;6316034;27;96539;-68
2022/03/23 02:06:37;;;;;;;;;61.60;47.00;;;;;8.76;37.47;100416.25;6270284;27;97387;-69
2022/03/23 02:09:43;;;;;;;;;61.40;47.00;;;;;8.72;37.07;100409.53;6297363;27;97501;-67
2022/03/23 02:12:49;;;;;;;;;58.00;46.00;;;;;8.75;36.75;100417.25;6306784;27;97439;-68
2022/03/23 02:15:53;;;;;;;;;61.20;46.60;;;;;8.79;36.91;100413.22;6295903;27;97786;-69
2022/03/23 02:18:57;;;;;;;;;63.00;48.00;;;;;8.79;36.88;100407.84;6296858;27;98115;-69
2022/03/23 02:22:02;;;;;;;;;63.40;48.00;;;;;8.84;36.99;100410.03;6315943;27;97091;-69
2022/03/23 02:25:08;;;;;;;;;63.40;48.40;;;;;8.87;36.88;100396.22;6278512;27;97325;-69
2022/03/23 02:28:14;;;;;;;;;64.25;50.00;;;;;9.02;36.46;100403.38;6295171;27;98110;-68
2022/03/23 02:31:17;;;;;;;;;61.60;48.00;;;;;9.02;36.66;100411.44;6296828;27;98502;-69
2022/03/23 02:34:21;;;;;;;;;61.00;46.00;;;;;9.04;36.62;100405.91;6307067;27;98109;-69
2022/03/23 02:37:25;;;;;;;;;60.60;45.60;;;;;9.01;36.41;100399.00;6313575;27;98192;-69
2022/03/23 02:40:28;;;;;;;;;63.50;48.00;;;;;9.00;36.45;100399.19;6279134;27;98405;-67
2022/03/23 02:43:32;;;;;;;;;61.50;47.50;;;;;8.83;36.90;100384.13;6316090;27;96343;-69
2022/03/23 02:46:35;;;;;;;;;63.50;48.50;;;;;9.00;36.55;100402.72;6276850;27;100468;-67
2022/03/23 02:49:39;;;;;;;;;65.20;49.60;;;;;9.00;36.66;100397.31;6316678;27;96373;-68
2022/03/23 03:02:50;;;;;;;;;61.20;46.00;;;;;8.44;37.78;100408.28;6313532;27;97519;-68
2022/03/23 03:05:53;;;;;;;;;64.00;48.00;;;;;8.31;37.94;100395.34;6291835;27;96939;-68
2022/03/23 03:08:59;;;;;;;;;60.00;46.00;;;;;8.28;37.66;100399.19;6278235;27;99168;-68
2022/03/23 03:12:02;;;;;;;;;61.00;46.00;;;;;8.26;37.53;100398.50;6309158;27;96486;-68
2022/03/23 03:15:06;;;;;;;;;61.00;46.00;;;;;8.26;37.46;100395.81;6312943;27;97197;-68
2022/03/23 03:18:10;;;;;;;;;60.00;46.00;;;;;8.27;37.53;100402.88;6294291;27;97114;-68
2022/03/23 03:21:14;;;;;;;;;62.00;46.00;;;;;8.28;37.68;100401.88;6293320;27;97857;-68
2022/03/23 03:24:20;;;;;;;;;63.75;50.00;;;;;8.30;37.92;100400.91;6293986;27;98351;-68
2022/03/23 03:27:23;;;;;;;;;61.40;46.00;;;;;8.32;37.75;100394.34;6313519;27;96749;-68
2022/03/23 03:30:27;;;;;;;;;61.50;48.00;;;;;8.32;37.53;100390.81;6294870;27;96825;-67
2022/03/23 03:33:30;;;;;;;;;61.00;46.00;;;;;8.36;37.62;100401.03;6272281;27;98251;-68
2022/03/23 03:36:34;;;;;;;;;61.00;46.60;;;;;8.38;37.59;100396.34;6314502;27;98165;-68
2022/03/23 03:39:38;;;;;;;;;59.60;46.00;;;;;8.39;37.64;100389.97;6294939;27;99863;-68
2022/03/23 03:42:41;;;;;;;;;61.50;46.50;;;;;8.46;37.77;100385.56;6313612;27;96377;-68
2022/03/23 03:45:45;;;;;;;;;60.00;46.00;;;;;8.42;37.56;100381.56;6277122;27;98533;-68
2022/03/23 03:48:48;;;;;;;;;57.00;46.00;;;;;8.43;37.94;100388.63;6296143;27;96913;-68
2022/03/23 03:51:52;;;;;;;;;57.40;45.00;;;;;8.40;37.92;100394.34;6313596;27;97507;-68
2022/03/23 03:54:56;;;;;;;;;58.25;45.00;;;;;8.41;37.68;100390.63;6312810;27;97098;-67
2022/03/23 03:58:00;;;;;;;;;57.00;44.00;;;;;8.35;37.88;100385.97;6291320;27;97030;-69
2022/03/23 04:01:03;;;;;;;;;56.25;44.00;;;;;8.10;38.09;100369.00;6294178;27;97228;-68
2022/03/23 04:04:07;;;;;;;;;54.60;43.60;;;;;8.23;37.98;100387.28;6314168;27;96793;-68
2022/03/23 04:07:10;;;;;;;;;57.25;45.25;;;;;8.20;38.17;100384.94;6296310;27;98603;-68
2022/03/23 04:10:15;;;;;;;;;56.50;45.00;;;;;8.17;38.18;100393.31;6273548;27;97112;-68
2022/03/23 04:13:18;;;;;;;;;58.25;45.50;;;;;8.11;38.23;100385.97;6314216;27;97108;-68
2022/03/23 04:16:22;;;;;;;;;60.60;46.80;;;;;8.04;38.54;100391.16;6294249;27;97309;-68
2022/03/23 04:19:25;;;;;;;;;56.40;44.00;;;;;8.04;38.59;100390.31;6283835;27;97117;-68
2022/03/23 04:22:29;;;;;;;;;61.20;46.00;;;;;7.95;38.55;100385.97;6295583;27;99175;-68
2022/03/23 04:25:34;;;;;;;;;57.40;44.40;;;;;7.91;38.33;100392.69;6313897;27;96365;-68
2022/03/23 04:28:37;;;;;;;;;57.80;44.60;;;;;7.86;38.29;100386.97;6294689;27;97027;-68
2022/03/23 04:31:40;;;;;;;;;59.00;43.50;;;;;7.76;38.42;100385.31;6293714;27;99134;-68
2022/03/23 04:34:44;;;;;;;;;55.60;44.60;;;;;7.70;38.51;100380.59;6313196;27;96595;-68
2022/03/23 04:37:47;;;;;;;;;54.80;43.60;;;;;7.40;38.65;100362.44;6313907;27;97143;-68
2022/03/23 04:40:52;;;;;;;;;56.75;44.00;;;;;7.50;38.50;100384.59;6291675;27;99464;-68
2022/03/23 04:43:55;;;;;;;;;56.60;44.00;;;;;7.40;38.76;100383.91;6312645;27;96956;-68
2022/03/23 04:47:00;;;;;;;;;56.50;44.75;;;;;7.29;38.85;100378.84;6312640;27;96772;-69
2022/03/23 04:50:05;;;;;;;;;56.60;44.00;;;;;7.16;38.92;100381.16;6295234;27;96689;-69
2022/03/23 04:53:09;;;;;;;;;56.00;44.00;;;;;7.16;38.81;100384.69;6311142;27;97438;-69
2022/03/23 04:56:14;;;;;;;;;54.60;43.00;;;;;7.15;39.39;100388.38;6291911;27;98538;-69
2022/03/23 04:59:17;;;;;;;;;55.25;44.00;;;;;7.13;39.18;100386.88;6310418;27;97236;-69
2022/03/23 05:02:21;;;;;;;;;56.00;43.40;;;;;7.12;38.87;100380.66;6287210;27;97843;-69
2022/03/23 05:05:25;;;;;;;;;56.20;43.00;;;;;6.96;39.63;100353.78;6274365;27;97950;-69
2022/03/23 05:08:28;;;;;;;;;57.00;45.00;;;;;7.15;39.59;100385.69;6293471;27;97991;-68
2022/03/23 05:11:33;;;;;;;;;60.50;46.00;;;;;7.18;39.49;100387.22;6309579;27;96936;-69
2022/03/23 05:14:37;;;;;;;;;55.40;44.40;;;;;7.10;39.61;100382.66;6310957;27;97478;-69
2022/03/23 05:17:40;;;;;;;;;57.80;44.80;;;;;7.15;39.88;100391.03;6307479;27;96923;-69
2022/03/23 05:20:43;;;;;;;;;56.00;44.00;;;;;7.12;39.76;100375.28;6310185;27;97434;-69
2022/03/23 05:23:47;;;;;;;;;58.00;45.00;;;;;7.20;39.95;100377.97;6301412;27;97063;-68
2022/03/23 05:26:51;;;;;;;;;58.00;44.50;;;;;7.31;39.88;100380.38;6305429;27;96633;-68
2022/03/23 05:29:54;;;;;;;;;56.50;44.00;;;;;7.52;39.63;100379.91;6307088;27;97166;-69
2022/03/23 05:32:58;;;;;;;;;57.60;45.00;;;;;7.66;39.57;100375.72;6275663;27;96704;-68
2022/03/23 05:36:01;;;;;;;;;58.00;45.60;;;;;7.81;39.39;100380.28;6290313;27;98995;-67
2022/03/23 05:39:04;;;;;;;;;56.60;45.00;;;;;8.00;39.13;100372.88;6310754;27;97424;-67
2022/03/23 05:42:09;;;;;;;;;57.60;44.00;;;;;8.19;38.92;100370.66;6272590;27;98011;-67
2022/03/23 05:45:12;;;;;;;;;57.80;46.00;;;;;8.29;38.69;100346.28;6274856;27;96766;-67
2022/03/23 05:48:15;;;;;;;;;59.20;46.00;;;;;8.68;38.36;100359.81;6290119;27;97289;-68
2022/03/23 05:51:18;;;;;;;;;56.60;46.00;;;;;8.97;38.00;100354.66;6292504;27;97575;-68
2022/03/23 05:54:22;;;;;;;;;58.60;46.00;;;;;9.27;37.70;100344.91;6293682;27;96418;-68
2022/03/23 05:57:27;;;;;;;;;59.20;46.00;;;;;9.33;37.54;100309.22;6267715;27;98388;-68
2022/03/23 06:00:31;;;;;;;;;56.60;44.60;;;;;9.76;36.72;100315.75;6290305;27;96599;-72
2022/03/23 06:03:35;;;;;;;;;56.00;44.00;;;;;10.26;36.46;100347.47;6305496;27;96665;-68
2022/03/23 06:06:38;;;;;;;;;55.00;44.00;;;;;10.42;36.02;100324.88;6310496;27;97547;-68
2022/03/23 06:09:42;;;;;;;;;54.40;42.00;;;;;11.00;35.28;100353.66;6277073;27;98795;-68
2022/03/23 06:12:46;;;;;;;;;55.40;43.00;;;;;11.33;34.73;100345.97;6293540;27;99708;-68
2022/03/23 06:15:50;;;;;;;;;58.20;44.20;;;;;11.82;33.98;100356.06;6313530;27;97758;-69
2022/03/23 06:18:53;;;;;;;;;55.00;44.00;;;;;12.03;34.39;100356.84;6289376;27;96571;-67
2022/03/23 06:21:56;;;;;;;;;59.40;46.00;;;;;12.06;33.99;100352.94;6276176;27;97234;-69
2022/03/23 06:24:59;;;;;;;;;61.40;46.00;;;;;12.09;33.30;100350.66;6313798;27;97319;-68
2022/03/23 06:28:05;;;;;;;;;61.00;46.80;;;;;12.18;33.40;100351.34;6295731;27;96689;-68
2022/03/23 06:31:08;;;;;;;;;61.00;47.00;;;;;12.40;33.01;100339.47;6313806;27;97565;-68
2022/03/23 06:34:11;;;;;;;;;55.80;44.00;;;;;12.69;32.53;100348.38;6315568;27;97962;-69
2022/03/23 06:37:15;;;;;;;;;49.60;40.80;;;;;13.02;31.23;100346.66;6296139;27;98681;-69
2022/03/23 06:40:18;;;;;;;;;54.60;42.80;;;;;13.42;30.83;100342.25;6307581;27;97852;-70
2022/03/23 06:43:27;;;;;;;;;56.00;43.00;;;;;13.74;30.96;100348.75;6303582;27;97073;-68
2022/03/23 06:46:30;;;;;;;;;53.00;44.00;;;;;13.80;30.04;100327.09;6316523;27;96964;-70
2022/03/23 06:49:34;;;;;;;;;55.80;45.00;;;;;14.30;29.52;100362.75;6278417;27;97503;-70
2022/03/23 06:52:37;;;;;;;;;55.40;42.80;;;;;14.62;29.25;100361.88;6294643;27;97002;-68
2022/03/23 06:55:40;;;;;;;;;55.80;43.00;;;;;14.94;28.61;100367.47;6307430;27;97573;-69
2022/03/23 06:58:45;;;;;;;;;56.00;44.00;;;;;15.37;28.09;100367.69;6284811;27;98558;-68
2022/03/23 07:01:48;;;;;;;;;49.00;40.00;;;;;15.89;27.34;100369.28;6295998;27;96565;-68
2022/03/23 07:04:51;;;;;;;;;56.00;44.00;;;;;16.24;26.89;100362.31;6294575;27;96825;-68
2022/03/23 07:11:15;;;;;;;;;58.60;44.80;;;;;16.77;25.67;100329.13;6308545;27;97281;-72
2022/03/23 07:14:20;;;;;;;;;55.00;43.00;;;;;17.32;25.10;100365.34;6311027;27;96889;-73
2022/03/23 07:17:23;;;;;;;;;62.00;46.00;;;;;17.79;24.67;100360.13;6307952;27;97453;-70
2022/03/23 07:20:27;;;;;;;;;61.00;46.00;;;;;18.14;24.50;100342.72;6313061;27;96703;-73
2022/03/23 07:23:30;;;;;;;;;57.80;47.00;;;;;18.38;23.94;100335.38;6286636;27;97380;-71
2022/03/23 07:26:34;;;;;;;;;64.00;50.00;;;;;18.85;23.57;100330.75;6297490;27;97070;-72
2022/03/23 07:29:40;;;;;;;;;62.60;48.00;;;;;19.60;23.31;100357.16;6270278;27;98921;-71
2022/03/23 07:32:43;;;;;;;;;61.00;46.00;;;;;19.97;22.39;100360.28;6276942;27;99941;-70
2022/03/23 07:35:46;;;;;;;;;63.00;48.00;;;;;20.02;22.15;100283.72;6290226;27;96570;-72
2022/03/23 07:38:50;;;;;;;;;64.40;48.40;;;;;21.03;21.32;100346.31;6284029;27;97539;-71
2022/03/23 07:41:54;;;;;;;;;62.00;49.25;;;;;21.56;20.67;100342.84;6271673;27;98410;-69
2022/03/23 07:44:58;;;;;;;;;60.75;46.00;;;;;22.13;20.64;100345.09;6272346;27;97494;-71
2022/03/23 07:48:02;;;;;;;;;63.25;47.00;;;;;22.40;19.98;100314.78;6297283;27;96881;-72
2022/03/23 07:51:05;;;;;;;;;62.75;48.75;;;;;22.92;19.32;100341.53;6273138;27;97212;-73
2022/03/23 07:54:09;;;;;;;;;60.75;48.00;;;;;23.13;18.65;100333.06;6302489;27;98984;-72
2022/03/23 07:57:13;;;;;;;;;60.00;45.00;;;;;23.59;18.00;100336.00;6301326;27;99758;-72
2022/03/23 08:00:18;;;;;;;;;58.80;46.00;;;;;23.83;18.12;100339.06;6307804;27;97629;-75
2022/03/23 08:03:22;;;;;;;;;61.50;47.00;;;;;24.13;17.64;100333.59;6279470;27;97070;-69
2022/03/23 08:06:26;;;;;;;;;62.25;48.00;;;;;24.50;17.57;100331.38;6286893;27;98165;-72
2022/03/23 08:09:30;;;;;;;;;58.25;44.50;;;;;25.03;16.65;100326.28;6287672;27;97125;-73
2022/03/23 08:12:33;;;;;;;;;52.40;42.00;;;;;25.31;16.49;100324.78;6297094;27;97252;-73
2022/03/23 08:15:38;;;;;;;;;53.40;41.00;;;;;25.68;16.10;100327.91;6302834;27;97595;-70
2022/03/23 08:18:42;;;;;;;;;56.25;44.00;;;;;26.12;15.84;100318.72;6303624;27;96801;-74
2022/03/23 08:21:45;;;;;;;;;55.50;44.00;;;;;26.42;15.59;100307.44;6267780;27;98748;-74
2022/03/23 08:24:48;;;;;;;;;50.40;40.60;;;;;26.77;14.96;100309.00;6278762;27;98415;-71
2022/03/23 08:27:52;;;;;;;;;50.00;40.60;;;;;26.47;14.85;100265.88;6262473;27;98065;-72
2022/03/23 08:30:57;;;;;;;;;49.40;40.00;;;;;26.79;14.53;100294.84;6274281;27;97291;-71
2022/03/23 08:34:00;;;;;;;;;46.40;38.00;;;;;27.24;15.07;100312.84;6282096;27;98718;-71
2022/03/23 08:37:05;;;;;;;;;42.00;35.40;;;;;27.67;14.07;100308.94;6314062;27;97433;-72
2022/03/23 08:40:09;;;;;;;;;41.80;35.00;;;;;28.06;13.40;100314.13;6293962;27;97301;-71
2022/03/23 08:43:12;;;;;;;;;44.50;35.00;;;;;28.48;13.05;100299.28;6296422;27;96752;-72
2022/03/23 08:46:17;;;;;;;;;37.80;33.00;;;;;28.99;13.38;100296.34;6305854;27;96905;-72
2022/03/23 08:49:20;;;;;;;;;35.00;31.40;;;;;29.03;12.40;100302.13;6273287;27;98145;-73
2022/03/23 08:52:24;;;;;;;;;37.50;32.00;;;;;29.09;12.55;100296.13;6285283;27;97812;-70
2022/03/23 08:55:28;;;;;;;;;41.00;34.75;;;;;29.38;12.38;100293.03;6289155;27;97607;-74
2022/03/23 08:58:31;;;;;;;;;45.00;35.00;;;;;29.66;12.74;100296.56;6296348;27;98248;-70
2022/03/23 09:01:36;;;;;;;;;40.40;35.00;;;;;29.99;11.86;100292.44;6253875;27;98592;-71
2022/03/23 09:04:40;;;;;;;;;41.80;34.00;;;;;30.26;12.25;100291.44;6310469;27;96691;-69
2022/03/23 09:07:43;;;;;;;;;31.00;28.60;;;;;30.61;11.31;100286.91;6282801;27;96794;-71
2022/03/23 09:10:47;;;;;;;;;32.40;29.80;;;;;30.57;11.13;100282.31;6288006;27;97931;-71
2022/03/23 09:13:50;;;;;;;;;33.20;27.80;;;;;30.79;10.51;100271.91;6309913;27;97837;-74
2022/03/23 09:16:55;;;;;;;;;35.40;30.00;;;;;31.02;10.47;100277.44;6297448;27;96674;-74
2022/03/23 09:20:00;;;;;;;;;28.75;27.00;;;;;31.22;10.54;100280.44;6270322;27;97047;-74
2022/03/23 09:23:03;;;;;;;;;31.00;26.20;;;;;31.28;10.39;100267.97;6288408;27;96504;-70
2022/03/23 09:26:09;;;;;;;;;30.00;27.00;;;;;31.82;10.21;100277.69;6314815;27;96585;-71
2022/03/23 09:29:13;;;;;;;;;32.00;30.00;;;;;31.99;10.00;100274.06;6314259;27;97391;-75
2022/03/23 09:32:18;;;;;;;;;27.33;23.33;;;;;32.16;9.33;100271.25;6312830;27;97005;-73
2022/03/23 09:35:21;;;;;;;;;22.40;21.00;;;;;32.42;9.41;100273.97;6313433;27;96564;-68
2022/03/23 09:38:26;;;;;;;;;26.00;23.00;;;;;32.73;9.11;100256.16;6313901;27;97246;-72
2022/03/23 09:41:32;;;;;;;;;22.20;22.00;;;;;32.86;9.32;100263.47;6295560;27;97883;-71
2022/03/23 09:44:35;;;;;;;;;21.67;19.00;;;;;33.00;8.97;100253.69;6302417;27;97427;-71
2022/03/23 09:47:40;;;;;;;;;22.50;20.25;;;;;33.18;9.20;100245.25;6286035;27;97984;-73
2022/03/23 09:50:47;;;;;;;;;23.20;21.40;;;;;33.43;9.72;100228.25;6302591;27;96453;-73
2022/03/23 09:53:51;;;;;;;;;23.00;19.60;;;;;34.00;9.41;100238.78;6296348;27;97395;-72
2022/03/23 09:56:55;;;;;;;;;21.00;19.60;;;;;34.08;8.11;100242.63;6304742;27;97531;-71
2022/03/23 09:59:58;;;;;;;;;21.50;18.50;;;;;34.38;8.50;100232.94;6304503;27;97078;-71
2022/03/23 10:04:07;;;;;;;;;23.00;21.00;;;;;34.50;8.42;100232.97;6289029;27;98381;-69
2022/03/23 10:07:15;;;;;;;;;19.60;18.00;;;;;34.77;8.28;100223.88;6283383;27;97712;-72
2022/03/23 10:10:54;;;;;;;;;17.25;17.00;;;;;34.81;7.50;100218.38;6318260;27;97467;-72
2022/03/23 10:14:35;;;;;;;;;20.60;18.00;;;;;35.02;7.51;100221.88;6246607;27;97252;-70
2022/03/23 10:18:02;;;;;;;;;20.00;17.40;;;;;35.02;7.38;100215.44;6300634;27;97466;-71
2022/03/23 10:21:08;;;;;;;;;21.25;18.25;;;;;35.12;7.45;100201.75;6310437;27;97432;-73
2022/03/23 10:24:32;;;;;;;;;21.20;18.00;;;;;35.23;7.48;100202.13;6287377;27;97576;-71
2022/03/23 10:27:35;;;;;;;;;20.00;17.00;;;;;35.43;7.56;100197.50;6305084;27;98115;-72
2022/03/23 10:30:40;;;;;;;;;19.40;18.00;;;;;35.53;7.20;100189.38;6290921;27;97135;-73
2022/03/23 10:33:44;;;;;;;;;17.00;16.00;;;;;35.81;7.21;100182.97;6281787;27;97723;-71
2022/03/23 10:36:54;;;;;;;;;19.20;18.00;;;;;35.91;7.12;100177.66;6284982;27;97038;-70
2022/03/23 10:39:59;;;;;;;;;20.50;17.25;;;;;35.99;7.18;100181.44;6287049;27;96651;-72
2022/03/23 10:43:03;;;;;;;;;16.20;16.00;;;;;35.91;7.46;100176.84;6313863;27;96397;-70
2022/03/23 10:46:11;;;;;;;;;22.00;17.00;;;;;36.23;7.01;100170.09;6300727;27;98046;-75
2022/03/23 10:49:15;;;;;;;;;17.00;15.00;;;;;36.30;6.51;100170.28;6288934;27;96771;-73
2022/03/23 10:52:20;;;;;;;;;17.60;14.60;;;;;36.26;6.97;100148.91;6296010;27;97732;-73
2022/03/23 10:55:25;;;;;;;;;15.80;14.00;;;;;36.25;5.80;100159.31;6281953;27;96704;-72
2022/03/23 10:58:29;;;;;;;;;14.00;13.00;;;;;36.12;5.79;100159.75;6305302;27;96917;-73
2022/03/23 11:02:00;;;;;;;;;14.00;12.60;;;;;36.09;6.13;100146.41;6294161;27;96373;-71
2022/03/23 11:05:05;;;;;;;;;14.60;12.40;;;;;36.28;6.19;100147.34;6312168;27;97339;-70
2022/03/23 11:08:12;;;;;;;;;15.75;14.75;;;;;36.57;6.76;100140.41;6296001;27;97139;-69
2022/03/23 11:18:07;;;;;;;;;12.00;11.00;;;;;37.07;4.69;100119.09;6271781;27;97598;-72
2022/03/23 11:21:10;;;;;;;;;10.50;10.00;;;;;37.08;3.87;100110.31;6270151;27;97696;-69
2022/03/23 11:24:16;;;;;;;;;12.25;11.00;;;;;37.02;4.42;100108.13;6308723;27;97403;-71
2022/03/23 11:27:20;;;;;;;;;9.60;9.00;;;;;36.55;4.69;100111.88;6269591;27;97868;-72
2022/03/23 11:30:23;;;;;;;;;10.60;10.00;;;;;36.28;4.82;100099.59;6311424;27;97181;-72
2022/03/23 11:33:27;;;;;;;;;12.40;11.00;;;;;36.34;4.86;100100.97;6285343;27;97097;-72
2022/03/23 11:36:35;;;;;;;;;12.00;10.60;;;;;36.41;5.07;100098.31;6303135;27;98056;-72
2022/03/23 11:39:42;;;;;;;;;11.00;9.60;;;;;36.60;4.89;100085.50;6303327;27;97431;-73
2022/03/23 11:42:46;;;;;;;;;11.20;11.00;;;;;36.74;4.80;100074.59;6278111;27;98196;-72
2022/03/23 11:45:51;;;;;;;;;13.50;11.50;;;;;36.85;5.52;100076.44;6303004;27;98034;-73
2022/03/23 11:49:02;;;;;;;;;13.00;12.00;;;;;36.79;4.94;100061.09;6286409;27;96882;-73
2022/03/23 11:52:32;;;;;;;;;12.00;11.25;;;;;37.00;4.85;100055.06;6268045;27;96710;-71
2022/03/23 11:55:40;;;;;;;;;11.00;10.00;;;;;37.16;4.63;100044.59;6293408;27;97006;-72
2022/03/23 11:58:44;;;;;;;;;12.00;11.40;;;;;37.08;4.77;100050.44;6295159;27;97405;-72
2022/03/23 12:01:48;;;;;;;;;13.25;11.50;;;;;36.99;4.13;100042.22;6291977;27;98095;-72
2022/03/23 12:05:26;;;;;;;;;11.00;11.00;;;;;36.97;5.37;100043.75;6308630;27;97225;-72
2022/03/23 12:08:50;;;;;;;;;14.00;12.75;;;;;37.09;4.45;100040.84;6290917;27;98016;-72
2022/03/23 12:11:54;;;;;;;;;13.00;12.75;;;;;37.24;4.98;100031.50;6307752;27;97467;-72
2022/03/23 12:15:25;;;;;;;;;12.00;11.00;;;;;37.43;4.34;100028.63;6301278;27;97557;-72
2022/03/23 12:18:42;;;;;;;;;13.20;11.80;;;;;37.42;4.79;100027.00;6292245;27;97465;-72
2022/03/23 12:21:54;;;;;;;;;12.00;10.75;;;;;37.29;3.70;100017.09;6275550;27;98422;-70
2022/03/23 12:25:05;;;;;;;;;15.40;14.00;;;;;36.90;4.89;99982.56;6290154;27;98437;-72
2022/03/23 12:28:40;;;;;;;;;14.75;13.00;;;;;36.87;4.62;100012.25;6307793;27;96547;-71
2022/03/23 12:31:43;;;;;;;;;13.00;11.00;;;;;36.75;4.39;100014.41;6290054;27;99907;-73
2022/03/23 12:34:54;;;;;;;;;13.60;13.00;;;;;36.63;3.90;100003.31;6266921;27;96754;-74
2022/03/23 12:37:59;;;;;;;;;14.75;13.00;;;;;36.30;5.04;99990.53;6282800;27;96887;-76
2022/03/23 12:41:04;;;;;;;;;12.40;11.00;;;;;36.18;4.53;99987.03;6293846;27;97842;-71
2022/03/23 12:44:12;;;;;;;;;11.00;10.00;;;;;36.15;4.00;99979.34;6294731;27;96824;-76
2022/03/23 12:47:19;;;;;;;;;14.00;11.80;;;;;36.12;4.42;99985.69;6288300;27;97629;-76
2022/03/23 13:00:47;;;;;;;;;16.00;14.00;;;;;35.34;4.53;99964.88;6276726;27;97378;-73
2022/03/23 13:03:55;;;;;;;;;13.00;11.75;;;;;35.23;4.35;99965.78;6310835;27;97478;-70
2022/03/23 13:06:58;;;;;;;;;12.00;11.00;;;;;34.99;4.45;99953.50;6268986;27;97832;-72
2022/03/23 13:10:07;;;;;;;;;11.50;11.00;;;;;34.85;4.91;99960.69;6291079;27;96667;-70
2022/03/23 13:13:11;;;;;;;;;13.20;12.00;;;;;34.38;4.32;99957.72;6298294;27;97329;-70
2022/03/23 13:16:18;;;;;;;;;12.75;12.00;;;;;33.84;4.29;99953.25;6312059;27;98773;-72
2022/03/23 13:19:22;;;;;;;;;14.25;13.00;;;;;33.39;4.36;99947.72;6280269;27;96994;-72
2022/03/23 13:22:33;;;;;;;;;11.00;11.00;;;;;32.91;4.60;99926.06;6296399;27;97353;-75
2022/03/23 13:25:42;;;;;;;;;13.20;12.00;;;;;32.89;5.25;99933.97;6298024;27;98394;-75
2022/03/23 13:28:48;;;;;;;;;14.40;14.00;;;;;32.79;5.82;99891.72;6299396;27;96461;-74
2022/03/23 13:31:53;;;;;;;;;12.00;10.00;;;;;33.01;4.48;99931.22;6321162;27;97968;-72
2022/03/23 13:34:59;;;;;;;;;12.60;9.00;;;;;32.90;4.52;99920.81;6292028;27;96845;-75
2022/03/23 13:38:33;;;;;;;;;11.00;10.00;;;;;32.90;4.96;99913.25;6290134;27;97390;-74
2022/03/23 13:44:59;;;;;;;;;13.00;12.00;;;;;33.08;5.01;99914.72;6307830;27;96602;-70
2022/03/23 13:48:07;;;;;;;;;12.00;10.60;;;;;33.14;5.67;99915.28;6314422;27;97217;-71
2022/03/23 13:51:11;;;;;;;;;9.00;9.00;;;;;33.05;5.22;99895.81;6298972;27;98391;-73
2022/03/23 13:54:16;;;;;;;;;10.60;9.00;;;;;33.08;4.96;99909.13;6293143;27;96758;-73
2022/03/23 13:57:19;;;;;;;;;10.00;9.00;;;;;33.00;4.87;99900.81;6298282;27;96228;-72
2022/03/23 14:00:24;;;;;;;;;8.20;8.20;;;;;32.83;4.90;99903.81;6314242;27;98025;-74
2022/03/23 14:03:35;;;;;;;;;10.40;9.00;;;;;32.70;4.70;99894.56;6296420;27;98218;-70
2022/03/23 14:06:44;;;;;;;;;10.00;10.00;;;;;32.55;4.89;99893.22;6303092;27;96851;-72
2022/03/23 14:09:48;;;;;;;;;8.00;8.00;;;;;32.48;4.90;99892.97;6314581;27;96363;-73
2022/03/23 14:12:52;;;;;;;;;8.00;7.00;;;;;32.30;5.04;99887.91;6291817;27;98464;-72
2022/03/23 14:16:11;;;;;;;;;7.50;7.00;;;;;32.10;4.77;99879.19;6298677;27;98092;-69
2022/03/23 14:19:17;;;;;;;;;7.00;7.00;;;;;31.89;4.91;99874.72;6310736;27;96715;-71
2022/03/23 14:22:22;;;;;;;;;8.00;7.75;;;;;31.73;4.54;99872.53;6305009;27;97779;-70
2022/03/23 14:25:27;;;;;;;;;10.60;9.00;;;;;31.71;4.30;99866.50;6310316;27;97445;-72
2022/03/23 14:28:31;;;;;;;;;6.00;5.60;;;;;31.38;3.70;99852.38;6291719;27;97023;-72
2022/03/23 14:31:44;;;;;;;;;5.00;4.00;;;;;31.26;3.26;99866.22;6273140;27;97595;-73
2022/03/23 14:34:49;;;;;;;;;5.25;4.75;;;;;31.19;3.49;99854.78;6294368;27;99047;-72
2022/03/23 14:37:57;;;;;;;;;4.00;4.00;;;;;31.30;3.36;99846.88;6290774;27;97523;-71
2022/03/23 14:41:02;;;;;;;;;7.00;6.40;;;;;31.33;3.41;99852.56;6286148;27;98770;-70
2022/03/23 14:44:09;;;;;;;;;5.80;5.00;;;;;31.07;3.86;99812.09;6289437;27;96714;-70
2022/03/23 14:47:14;;;;;;;;;6.00;6.00;;;;;31.23;3.48;99839.03;6307851;27;97327;-70